createdAt,value
2023-04-02T00:02:22.866Z,12.18
2023-04-02T00:05:51.756Z,12.11
2023-04-02T00:09:13.304Z,11.69
2023-04-02T00:12:35.496Z,11.58
2023-04-02T00:15:58.998Z,11.42
2023-04-02T00:19:30.663Z,11.83
2023-04-02T00:22:52.732Z,11.80
2023-04-02T00:26:36.694Z,11.89
2023-04-02T00:30:01.413Z,12.08
2023-04-02T00:33:30.339Z,11.94
2023-04-02T00:36:52.715Z,11.76
2023-04-02T00:40:28.069Z,11.38
2023-04-02T00:43:52.703Z,11.48
2023-04-02T00:47:18.934Z,11.51
2023-04-02T00:50:42.867Z,11.59
2023-04-02T00:54:09.591Z,11.52
2023-04-02T00:57:33.585Z,11.77
2023-04-02T01:00:56.715Z,11.91
2023-04-02T01:04:32.681Z,12.08
2023-04-02T01:08:17.620Z,12.14
2023-04-02T01:11:56.629Z,11.67
2023-04-02T01:15:18.085Z,11.82
2023-04-02T01:19:13.873Z,11.70
2023-04-02T01:22:42.601Z,11.80
2023-04-02T01:26:19.377Z,11.97
2023-04-02T01:29:49.013Z,12.05
2023-04-02T01:33:12.352Z,12.16
2023-04-02T01:37:06.318Z,12.03
2023-04-02T01:40:30.950Z,12.08
2023-04-02T01:44:12.198Z,12.05
2023-04-02T01:47:33.942Z,11.67
2023-04-02T01:50:58.177Z,11.80
2023-04-02T01:54:23.483Z,11.94
2023-04-02T01:57:52.020Z,11.91
2023-04-02T02:01:15.490Z,11.89
2023-04-02T02:04:40.091Z,12.01
2023-04-02T02:08:04.911Z,11.98
2023-04-02T02:11:29.837Z,11.93
2023-04-02T02:14:53.921Z,11.42
2023-04-02T02:18:19.594Z,11.73
2023-04-02T02:21:48.615Z,11.91
2023-04-02T02:25:19.613Z,12.05
2023-04-02T02:28:43.831Z,11.82
2023-04-02T02:32:07.854Z,11.82
2023-04-02T02:35:43.186Z,11.91
2023-04-02T02:39:07.497Z,11.79
2023-04-02T02:42:36.304Z,11.84
2023-04-02T02:45:58.455Z,11.87
2023-04-02T02:49:26.148Z,11.84
2023-04-02T02:52:53.615Z,11.89
2023-04-02T02:56:18.711Z,11.72
2023-04-02T02:59:43.962Z,11.56
2023-04-02T03:03:09.605Z,11.65
2023-04-02T03:06:31.496Z,11.45
2023-04-02T03:10:05.608Z,11.76
2023-04-02T03:13:42.363Z,11.52
2023-04-02T03:17:16.490Z,11.39
2023-04-02T03:20:57.309Z,11.36
2023-04-02T03:24:26.663Z,11.22
2023-04-02T03:27:54.642Z,11.24
2023-04-02T03:31:28.589Z,11.48
2023-04-02T03:35:01.731Z,11.43
2023-04-02T03:38:30.311Z,11.36
2023-04-02T03:41:57.096Z,11.07
2023-04-02T03:45:28.746Z,11.21
2023-04-02T03:48:55.823Z,11.58
2023-04-02T03:52:28.085Z,11.45
2023-04-02T03:55:50.365Z,11.49
2023-04-02T03:59:22.821Z,11.61
2023-04-02T04:02:49.806Z,11.65
2023-04-02T04:06:22.843Z,11.54
2023-04-02T04:09:49.209Z,11.51
2023-04-02T04:13:18.854Z,11.12
2023-04-02T04:16:54.080Z,11.34
2023-04-02T04:20:22.004Z,10.97
2023-04-02T04:23:50.448Z,10.69
2023-04-02T04:27:42.953Z,10.70
2023-04-02T04:31:38.964Z,10.73
2023-04-02T04:35:19.890Z,10.85
2023-04-02T04:38:46.079Z,10.35
2023-04-02T04:42:12.654Z,10.56
2023-04-02T04:45:40.405Z,10.76
2023-04-02T04:49:17.326Z,10.85
2023-04-02T04:52:41.119Z,11.11
2023-04-02T04:56:18.481Z,10.79
2023-04-02T05:00:00.970Z,11.08
2023-04-02T05:03:48.873Z,11.52
2023-04-02T05:07:23.401Z,11.56
2023-04-02T05:10:53.514Z,11.86
2023-04-02T05:14:40.851Z,11.87
2023-04-02T05:18:10.692Z,11.63
2023-04-02T05:21:44.020Z,11.77
2023-04-02T05:25:31.808Z,12.05
2023-04-02T05:29:15.057Z,11.73
2023-04-02T05:32:41.974Z,11.82
2023-04-02T05:36:20.690Z,12.31
2023-04-02T05:39:46.159Z,12.52
2023-04-02T05:43:15.693Z,12.63
2023-04-02T05:46:50.707Z,12.69
2023-04-02T05:50:24.311Z,13.13
2023-04-02T05:53:59.074Z,13.13
2023-04-02T05:57:43.161Z,13.18
2023-04-02T06:01:18.243Z,13.04
2023-04-02T06:04:47.336Z,13.28
2023-04-02T06:08:19.370Z,13.90
2023-04-02T06:11:49.222Z,14.02
2023-04-02T06:15:18.952Z,14.34
2023-04-02T06:18:44.858Z,13.98
2023-04-02T06:22:19.101Z,14.01
2023-04-02T06:25:47.171Z,13.86
2023-04-02T06:29:26.990Z,14.65
2023-04-02T06:32:48.878Z,14.44
2023-04-02T06:36:12.522Z,14.30
2023-04-02T06:39:34.252Z,15.08
2023-04-02T06:42:59.894Z,14.78
2023-04-02T06:46:32.422Z,15.18
2023-04-02T06:50:02.274Z,15.08
2023-04-02T06:53:28.221Z,15.58
2023-04-02T06:56:52.190Z,14.95
2023-04-02T07:00:26.415Z,15.32
2023-04-02T07:03:48.384Z,15.09
2023-04-02T07:07:09.994Z,15.06
2023-04-02T07:10:31.645Z,15.95
2023-04-02T07:13:55.515Z,16.69
2023-04-02T07:17:18.251Z,17.27
2023-04-02T07:20:42.207Z,17.59
2023-04-02T07:24:07.165Z,17.22
2023-04-02T07:27:28.761Z,17.14
2023-04-02T07:30:53.136Z,16.77
2023-04-02T07:34:14.729Z,16.06
2023-04-02T07:37:37.520Z,16.49
2023-04-02T07:41:06.328Z,16.98
2023-04-02T07:44:29.042Z,16.71
2023-04-02T07:47:50.661Z,16.84
2023-04-02T07:51:18.626Z,16.19
2023-04-02T07:54:40.228Z,16.81
2023-04-02T07:58:04.249Z,16.73
2023-04-02T08:01:35.075Z,16.94
2023-04-02T08:04:59.219Z,16.05
2023-04-02T08:08:22.462Z,16.00
2023-04-02T08:11:46.914Z,16.21
2023-04-02T08:15:09.950Z,16.57
2023-04-02T08:18:34.262Z,16.74
2023-04-02T08:21:56.393Z,16.15
2023-04-02T08:25:21.176Z,16.64
2023-04-02T08:28:42.956Z,16.45
2023-04-02T08:32:04.789Z,16.11
2023-04-02T08:35:28.666Z,15.64
2023-04-02T08:38:51.087Z,15.90
2023-04-02T08:42:25.099Z,15.94
2023-04-02T08:46:05.920Z,16.67
2023-04-02T08:49:35.989Z,17.17
2023-04-02T08:52:59.336Z,17.27
2023-04-02T08:56:29.141Z,16.74
2023-04-02T08:59:59.863Z,16.79
2023-04-02T09:03:46.348Z,17.10
2023-04-02T09:07:15.042Z,16.55
2023-04-02T09:10:49.010Z,16.80
2023-04-02T09:14:18.707Z,16.52
2023-04-02T09:17:53.135Z,16.56
2023-04-02T09:21:22.513Z,17.08
2023-04-02T09:24:44.122Z,17.76
2023-04-02T09:28:05.993Z,17.10
2023-04-02T09:31:39.301Z,16.02
2023-04-02T09:35:24.451Z,16.18
2023-04-02T09:39:16.709Z,16.22
2023-04-02T09:42:40.993Z,16.40
2023-04-02T09:46:04.266Z,16.12
2023-04-02T09:49:38.477Z,16.30
2023-04-02T09:53:29.101Z,16.49
2023-04-02T09:57:02.717Z,15.91
2023-04-02T10:00:32.229Z,16.32
2023-04-02T10:03:57.057Z,16.40
2023-04-02T10:07:42.962Z,16.28
2023-04-02T10:11:11.064Z,16.26
2023-04-02T10:14:43.380Z,17.00
2023-04-02T10:18:16.654Z,17.06
2023-04-02T10:21:44.198Z,17.42
2023-04-02T10:25:16.272Z,17.61
2023-04-02T10:28:53.286Z,17.34
2023-04-02T10:32:26.406Z,16.66
2023-04-02T10:35:54.149Z,16.64
2023-04-02T10:39:24.799Z,16.63
2023-04-02T10:43:23.806Z,17.79
2023-04-02T10:46:45.561Z,18.62
2023-04-02T10:50:32.538Z,19.07
2023-04-02T10:54:07.676Z,19.76
2023-04-02T10:57:31.940Z,18.21
2023-04-02T11:01:20.298Z,18.15
2023-04-02T11:04:48.389Z,17.94
2023-04-02T11:08:21.891Z,17.94
2023-04-02T11:11:48.952Z,17.35
2023-04-02T11:15:16.819Z,18.25
2023-04-02T11:18:38.822Z,19.20
2023-04-02T11:22:25.745Z,20.82
2023-04-02T11:25:49.712Z,20.02
2023-04-02T11:29:19.338Z,20.78
2023-04-02T11:32:49.329Z,21.22
2023-04-02T11:37:02.144Z,21.63
2023-04-02T11:40:45.115Z,21.90
2023-04-02T11:44:24.752Z,21.51
2023-04-02T11:48:01.792Z,21.37
2023-04-02T11:51:23.684Z,21.56
2023-04-02T11:54:51.206Z,21.64
2023-04-02T11:58:28.166Z,21.32
2023-04-02T12:02:28.390Z,20.96
2023-04-02T12:05:58.689Z,20.88
2023-04-02T12:09:36.908Z,21.40
2023-04-02T12:12:58.959Z,21.50
2023-04-02T12:16:25.178Z,21.61
2023-04-02T12:19:53.391Z,21.15
2023-04-02T12:23:33.228Z,20.17
2023-04-02T12:27:22.655Z,20.81
2023-04-02T12:30:49.154Z,20.85
2023-04-02T12:34:16.930Z,20.81
2023-04-02T12:37:38.511Z,20.45
2023-04-02T12:41:06.394Z,20.34
2023-04-02T12:44:29.961Z,20.16
2023-04-02T12:47:53.292Z,19.72
2023-04-02T12:51:15.805Z,19.41
2023-04-02T12:54:57.594Z,19.21
2023-04-02T12:58:26.952Z,19.02
2023-04-02T13:01:57.493Z,19.10
2023-04-02T13:05:45.621Z,19.24
2023-04-02T13:09:35.886Z,19.55
2023-04-02T13:13:00.389Z,19.58
2023-04-02T13:16:28.446Z,20.48
2023-04-02T13:19:49.979Z,20.84
2023-04-02T13:23:29.860Z,19.53
2023-04-02T13:26:55.423Z,19.10
2023-04-02T13:30:23.047Z,19.06
2023-04-02T13:33:45.953Z,18.80
2023-04-02T13:37:12.332Z,18.92
2023-04-02T13:40:40.176Z,19.26
2023-04-02T13:44:03.256Z,18.72
2023-04-02T13:47:24.891Z,18.40
2023-04-02T13:50:46.815Z,18.70
2023-04-02T13:54:35.039Z,18.28
2023-04-02T13:58:04.959Z,18.59
2023-04-02T14:01:27.223Z,18.20
2023-04-02T14:04:52.855Z,18.32
2023-04-02T14:08:43.808Z,18.48
2023-04-02T14:12:11.299Z,18.48
2023-04-02T14:15:53.523Z,18.63
2023-04-02T14:19:36.805Z,18.53
2023-04-02T14:23:07.503Z,18.65
2023-04-02T14:26:39.610Z,18.80
2023-04-02T14:30:13.344Z,18.79
2023-04-02T14:34:02.626Z,18.59
2023-04-02T14:37:46.406Z,18.79
2023-04-02T14:41:14.977Z,18.59
2023-04-02T14:44:45.636Z,18.59
2023-04-02T14:48:19.464Z,18.30
2023-04-02T14:51:47.269Z,18.58
2023-04-02T14:55:21.590Z,18.65
2023-04-02T14:58:48.599Z,19.27
2023-04-02T15:02:23.145Z,19.45
2023-04-02T15:05:47.823Z,19.02
2023-04-02T15:09:28.701Z,18.35
2023-04-02T15:12:52.402Z,17.75
2023-04-02T15:16:20.703Z,17.46
2023-04-02T15:19:44.714Z,16.97
2023-04-02T15:23:38.557Z,16.70
2023-04-02T15:27:24.484Z,16.80
2023-04-02T15:30:51.679Z,16.39
2023-04-02T15:34:23.411Z,16.06
2023-04-02T15:37:51.100Z,15.71
2023-04-02T15:41:23.572Z,15.57
2023-04-02T15:45:05.428Z,15.03
2023-04-02T15:48:47.745Z,14.71
2023-04-02T15:52:21.759Z,14.71
2023-04-02T15:55:54.426Z,14.92
2023-04-02T15:59:55.591Z,14.98
2023-04-02T16:03:33.573Z,14.99
2023-04-02T16:07:19.681Z,15.16
2023-04-02T16:10:43.180Z,15.47
2023-04-02T16:14:25.650Z,15.33
2023-04-02T16:17:57.366Z,15.64
2023-04-02T16:21:30.250Z,15.91
2023-04-02T16:25:22.352Z,15.68
2023-04-02T16:29:01.286Z,15.42
2023-04-02T16:32:38.304Z,15.56
2023-04-02T16:36:10.030Z,15.12
2023-04-02T16:39:34.784Z,14.67
2023-04-02T16:43:21.058Z,14.48
2023-04-02T16:47:10.757Z,14.57
2023-04-02T16:50:51.066Z,14.51
2023-04-02T16:54:59.411Z,14.50
2023-04-02T16:58:27.144Z,14.54
2023-04-02T17:02:03.921Z,14.45
2023-04-02T17:05:33.881Z,14.71
2023-04-02T17:09:13.802Z,14.70
2023-04-02T17:12:47.463Z,14.75
2023-04-02T17:16:30.699Z,14.87
2023-04-02T17:19:58.109Z,14.81
2023-04-02T17:23:19.922Z,14.67
2023-04-02T17:26:43.515Z,14.43
2023-04-02T17:30:16.322Z,14.24
2023-04-02T17:33:37.974Z,14.16
2023-04-02T17:37:03.264Z,14.30
2023-04-02T17:40:40.919Z,14.33
2023-04-02T17:44:33.523Z,14.10
2023-04-02T17:48:15.003Z,13.45
2023-04-02T17:51:57.102Z,13.36
2023-04-02T17:55:40.849Z,13.03
2023-04-02T17:59:40.919Z,13.00
2023-04-02T18:03:12.669Z,13.17
2023-04-02T18:06:50.486Z,13.31
2023-04-02T18:10:36.077Z,12.96
2023-04-02T18:14:17.376Z,13.48
2023-04-02T18:18:09.427Z,13.09
2023-04-02T18:22:16.404Z,13.27
2023-04-02T18:26:03.472Z,13.44
2023-04-02T18:29:43.322Z,13.54
2023-04-02T18:33:22.480Z,13.10
2023-04-02T18:37:13.468Z,13.23
2023-04-02T18:41:11.732Z,13.43
2023-04-02T18:44:56.470Z,13.87
2023-04-02T18:48:28.955Z,14.37
2023-04-02T18:51:57.455Z,13.92
2023-04-02T18:55:24.565Z,13.41
2023-04-02T18:58:51.714Z,13.31
2023-04-02T19:02:49.280Z,12.83
2023-04-02T19:06:15.505Z,12.85
2023-04-02T19:09:43.329Z,12.73
2023-04-02T19:13:15.002Z,12.72
2023-04-02T19:16:58.332Z,12.05
2023-04-02T19:20:32.342Z,12.16
2023-04-02T19:24:18.841Z,12.25
2023-04-02T19:27:59.630Z,12.37
2023-04-02T19:31:40.177Z,12.38
2023-04-02T19:35:07.806Z,12.45
2023-04-02T19:39:17.484Z,12.21
2023-04-02T19:42:43.763Z,12.08
2023-04-02T19:46:05.437Z,12.08
2023-04-02T19:49:32.734Z,12.34
2023-04-02T19:52:54.415Z,12.28
2023-04-02T19:56:18.373Z,12.08
2023-04-02T19:59:42.075Z,11.82
2023-04-02T20:03:03.755Z,11.35
2023-04-02T20:06:30.090Z,11.38
2023-04-02T20:09:53.837Z,10.91
2023-04-02T20:13:15.499Z,11.43
2023-04-02T20:16:38.665Z,11.62
2023-04-02T20:20:00.385Z,11.82
2023-04-02T20:23:21.963Z,11.91
2023-04-02T20:26:43.563Z,11.31
2023-04-02T20:30:07.870Z,11.42
2023-04-02T20:33:32.605Z,11.59
2023-04-02T20:37:02.143Z,11.63
2023-04-02T20:40:25.133Z,11.56
2023-04-02T20:43:52.157Z,10.85
2023-04-02T20:47:16.221Z,10.66
2023-04-02T20:50:43.819Z,11.04
2023-04-02T20:54:05.447Z,11.14
2023-04-02T20:57:31.222Z,11.03
2023-04-02T21:00:55.304Z,11.36
2023-04-02T21:04:17.428Z,11.46
2023-04-02T21:07:43.681Z,11.54
2023-04-02T21:11:08.581Z,11.18
2023-04-02T21:14:35.709Z,11.12
2023-04-02T21:18:00.339Z,11.39
2023-04-02T21:21:24.557Z,11.04
2023-04-02T21:24:48.966Z,11.06
2023-04-02T21:28:15.417Z,10.84
2023-04-02T21:31:40.990Z,11.10
2023-04-02T21:35:03.556Z,11.25
2023-04-02T21:38:27.647Z,11.36
2023-04-02T21:41:52.021Z,10.73
2023-04-02T21:45:16.162Z,10.73
2023-04-02T21:48:41.858Z,11.06
2023-04-02T21:52:03.569Z,10.83
2023-04-02T21:55:25.334Z,10.97
2023-04-02T21:58:47.663Z,11.28
2023-04-02T22:02:09.344Z,11.19
2023-04-02T22:05:31.355Z,11.18
2023-04-02T22:08:59.427Z,11.11
2023-04-02T22:12:21.565Z,11.06
2023-04-02T22:15:47.714Z,11.18
2023-04-02T22:19:12.743Z,11.15
2023-04-02T22:22:34.349Z,11.34
2023-04-02T22:25:57.600Z,11.10
2023-04-02T22:29:19.297Z,11.00
2023-04-02T22:32:41.155Z,10.84
2023-04-02T22:36:03.752Z,10.84
2023-04-02T22:39:25.609Z,10.81
2023-04-02T22:42:48.012Z,10.67
2023-04-02T22:46:13.340Z,10.74
2023-04-02T22:49:37.195Z,10.53
2023-04-02T22:53:01.807Z,10.36
2023-04-02T22:56:31.763Z,10.41
2023-04-02T22:59:53.432Z,10.49
2023-04-02T23:03:15.115Z,10.80
2023-04-02T23:06:36.717Z,10.33
2023-04-02T23:10:01.372Z,10.18
2023-04-02T23:13:24.046Z,10.28
2023-04-02T23:16:45.733Z,10.15
2023-04-02T23:20:08.760Z,10.39
2023-04-02T23:23:31.563Z,10.57
2023-04-02T23:26:53.142Z,10.64
2023-04-02T23:30:19.537Z,10.55
2023-04-02T23:33:43.742Z,10.18
2023-04-02T23:37:05.423Z,10.14
2023-04-02T23:40:29.702Z,10.28
2023-04-02T23:43:51.587Z,10.01
2023-04-02T23:47:15.624Z,10.09
2023-04-02T23:50:37.481Z,9.71
2023-04-02T23:53:59.494Z,10.01
2023-04-02T23:57:21.128Z,9.80
